createdAt,value
2023-01-06T00:02:47.474Z,1.46
2023-01-06T00:06:47.477Z,1.46
2023-01-06T00:10:46.771Z,1.46
2023-01-06T00:14:46.535Z,1.46
2023-01-06T00:18:46.839Z,1.46
2023-01-06T00:22:46.575Z,1.46
2023-01-06T00:26:46.732Z,1.46
2023-01-06T00:30:46.608Z,1.46
2023-01-06T00:34:46.543Z,1.46
2023-01-06T00:38:46.521Z,1.46
2023-01-06T00:42:46.885Z,1.46
2023-01-06T00:46:47.226Z,1.46
2023-01-06T00:50:47.024Z,1.46
2023-01-06T00:54:47.078Z,1.46
2023-01-06T00:58:47.013Z,1.46
2023-01-06T01:02:47.954Z,1.46
2023-01-06T01:06:46.645Z,1.46
2023-01-06T01:10:46.516Z,1.46
2023-01-06T01:14:46.870Z,1.46
2023-01-06T01:18:46.811Z,1.46
2023-01-06T01:22:46.981Z,1.46
2023-01-06T01:26:47.189Z,1.46
2023-01-06T01:30:47.424Z,1.46
2023-01-06T01:34:47.274Z,1.46
2023-01-06T01:38:46.324Z,1.46
2023-01-06T01:42:46.566Z,1.46
2023-01-06T01:46:46.961Z,1.46
2023-01-06T01:50:46.895Z,1.46
2023-01-06T01:54:46.947Z,1.46
2023-01-06T01:58:46.725Z,1.46
2023-01-06T02:02:47.242Z,1.46
2023-01-06T02:06:46.574Z,1.46
2023-01-06T02:10:46.820Z,1.46
2023-01-06T02:14:46.936Z,1.46
2023-01-06T02:18:47.125Z,1.46
2023-01-06T02:22:46.305Z,1.46
2023-01-06T02:26:47.401Z,1.46
2023-01-06T02:30:47.238Z,1.46
2023-01-06T02:34:46.387Z,1.46
2023-01-06T02:38:46.598Z,1.46
2023-01-06T02:42:47.056Z,1.46
2023-01-06T02:46:47.489Z,1.46
2023-01-06T02:50:47.351Z,1.46
2023-01-06T02:54:46.461Z,1.46
2023-01-06T02:58:46.419Z,1.46
2023-01-06T03:02:47.695Z,1.46
2023-01-06T03:06:47.092Z,1.46
2023-01-06T03:10:47.222Z,1.46
2023-01-06T03:14:47.055Z,1.46
2023-01-06T03:18:47.380Z,1.46
2023-01-06T03:22:47.213Z,1.46
2023-01-06T03:26:46.523Z,1.46
2023-01-06T03:30:46.691Z,1.46
2023-01-06T03:34:46.606Z,1.46
2023-01-06T03:38:46.929Z,1.46
2023-01-06T03:43:05.140Z,1.46
2023-01-06T03:46:47.697Z,1.46
2023-01-06T03:50:46.611Z,1.46
2023-01-06T03:54:46.892Z,1.46
2023-01-06T03:58:46.611Z,1.46
2023-01-06T04:02:47.185Z,1.46
2023-01-06T04:06:46.365Z,1.46
2023-01-06T04:10:47.347Z,1.46
2023-01-06T04:14:46.578Z,1.46
2023-01-06T04:18:46.421Z,1.46
2023-01-06T04:22:46.599Z,1.46
2023-01-06T04:26:46.518Z,1.46
2023-01-06T04:30:46.910Z,1.46
2023-01-06T04:34:47.207Z,1.46
2023-01-06T04:38:47.301Z,1.46
2023-01-06T04:42:46.474Z,1.46
2023-01-06T04:46:46.664Z,1.46
2023-01-06T04:50:46.930Z,1.46
2023-01-06T04:54:46.595Z,1.46
2023-01-06T04:58:46.962Z,1.46
2023-01-06T05:02:46.599Z,1.46
2023-01-06T05:06:46.293Z,1.46
2023-01-06T05:10:46.580Z,1.46
2023-01-06T05:14:46.778Z,1.46
2023-01-06T05:18:47.061Z,1.46
2023-01-06T05:22:47.077Z,1.46
2023-01-06T05:26:47.237Z,1.46
2023-01-06T05:30:47.159Z,1.46
2023-01-06T05:34:46.514Z,1.46
2023-01-06T05:38:46.430Z,1.46
2023-01-06T05:42:46.820Z,1.46
2023-01-06T05:46:47.150Z,1.46
2023-01-06T05:50:46.878Z,1.46
2023-01-06T05:54:47.200Z,1.46
2023-01-06T05:58:47.282Z,1.46
2023-01-06T06:02:47.576Z,1.46
2023-01-06T06:06:47.110Z,1.46
2023-01-06T06:10:47.481Z,1.46
2023-01-06T06:14:46.498Z,1.46
2023-01-06T06:18:46.773Z,1.46
2023-01-06T06:22:46.972Z,1.46
2023-01-06T06:26:46.943Z,1.46
2023-01-06T06:30:47.108Z,1.46
2023-01-06T06:34:46.782Z,1.46
2023-01-06T06:38:46.697Z,1.46
2023-01-06T06:42:46.609Z,1.46
2023-01-06T06:46:46.793Z,1.46
2023-01-06T06:50:46.907Z,1.46
2023-01-06T06:54:46.946Z,1.46
2023-01-06T06:58:47.182Z,1.46
2023-01-06T07:02:47.373Z,1.46
2023-01-06T07:06:49.163Z,1.46
2023-01-06T07:10:47.064Z,1.46
2023-01-06T07:14:47.216Z,1.46
2023-01-06T07:18:46.948Z,1.46
2023-01-06T07:22:46.973Z,1.46
2023-01-06T07:26:46.996Z,1.46
2023-01-06T07:30:47.012Z,1.46
2023-01-06T07:34:46.971Z,1.46
2023-01-06T07:38:46.917Z,1.46
2023-01-06T07:42:46.809Z,1.46
2023-01-06T07:46:47.108Z,1.46
2023-01-06T07:50:49.089Z,1.46
2023-01-06T07:54:47.066Z,1.46
2023-01-06T07:58:47.189Z,1.46
2023-01-06T08:02:47.842Z,1.46
2023-01-06T08:06:47.097Z,1.46
2023-01-06T08:10:47.073Z,1.46
2023-01-06T08:14:47.072Z,1.46
2023-01-06T08:18:47.174Z,1.46
2023-01-06T08:22:47.067Z,1.46
2023-01-06T08:26:47.248Z,1.46
2023-01-06T08:30:47.036Z,1.46
2023-01-06T08:34:47.153Z,1.46
2023-01-06T08:38:46.848Z,1.46
2023-01-06T08:42:47.222Z,1.46
2023-01-06T08:46:47.693Z,1.46
2023-01-06T08:50:49.903Z,1.46
2023-01-06T08:54:47.345Z,1.46
2023-01-06T08:58:47.215Z,1.46
2023-01-06T09:02:47.516Z,1.46
2023-01-06T09:06:46.987Z,1.46
2023-01-06T09:10:47.169Z,1.46
2023-01-06T09:14:47.234Z,1.46
2023-01-06T09:18:46.413Z,1.46
2023-01-06T09:22:46.539Z,1.46
2023-01-06T09:26:46.589Z,1.46
2023-01-06T09:30:46.851Z,1.46
2023-01-06T09:34:46.749Z,1.46
2023-01-06T09:38:47.113Z,1.46
2023-01-06T09:42:47.123Z,1.46
2023-01-06T09:46:47.656Z,1.46
2023-01-06T09:50:46.576Z,1.46
2023-01-06T09:54:46.741Z,1.46
2023-01-06T09:58:46.741Z,1.46
2023-01-06T10:02:47.481Z,1.46
2023-01-06T10:06:47.432Z,1.46
2023-01-06T10:10:47.273Z,1.46
2023-01-06T10:14:46.451Z,1.46
2023-01-06T10:18:46.600Z,1.46
2023-01-06T10:22:46.668Z,1.46
2023-01-06T10:26:46.364Z,1.46
2023-01-06T10:30:55.856Z,1.46
2023-01-06T10:34:46.755Z,1.46
2023-01-06T10:38:46.858Z,1.46
2023-01-06T10:42:47.109Z,1.46
2023-01-06T10:46:47.372Z,1.46
2023-01-06T10:50:47.169Z,1.46
2023-01-06T10:54:46.826Z,1.46
2023-01-06T10:58:46.693Z,1.46
2023-01-06T11:02:47.506Z,1.46
2023-01-06T11:06:46.418Z,1.46
2023-01-06T11:10:47.269Z,12.39
2023-01-06T11:14:46.888Z,12.39
2023-01-06T11:18:46.852Z,0.84
2023-01-06T11:22:47.316Z,0.58
2023-01-06T11:26:46.620Z,0.58
2023-01-06T11:30:47.323Z,0.48
2023-01-06T11:34:46.328Z,0.48
2023-01-06T11:38:47.006Z,0.44
2023-01-06T11:42:47.129Z,0.44
2023-01-06T11:46:47.379Z,0.44
2023-01-06T11:50:47.351Z,0.44
2023-01-06T11:54:46.883Z,0.44
2023-01-06T11:58:47.139Z,0.44
2023-01-06T12:02:47.596Z,0.44
2023-01-06T12:06:47.254Z,0.39
2023-01-06T12:10:47.475Z,0.39
2023-01-06T12:15:08.706Z,0.39
2023-01-06T12:18:47.711Z,0.39
2023-01-06T12:22:46.581Z,0.39
2023-01-06T12:26:47.497Z,0.39
2023-01-06T12:30:46.774Z,0.39
2023-01-06T12:34:46.740Z,0.39
2023-01-06T12:38:47.063Z,0.39
2023-01-06T12:42:49.320Z,0.39
2023-01-06T12:46:47.367Z,0.39
2023-01-06T12:50:46.715Z,0.39
2023-01-06T12:54:46.692Z,0.39
2023-01-06T12:58:46.675Z,0.39
2023-01-06T13:02:47.806Z,0.39
2023-01-06T13:06:47.180Z,0.39
2023-01-06T13:10:47.086Z,0.34
2023-01-06T13:14:47.023Z,0.34
2023-01-06T13:18:48.914Z,0.34
2023-01-06T13:22:47.164Z,0.34
2023-01-06T13:26:46.930Z,0.34
2023-01-06T13:30:47.216Z,0.34
2023-01-06T13:34:46.615Z,0.34
2023-01-06T13:38:46.601Z,0.34
2023-01-06T13:42:46.513Z,0.34
2023-01-06T13:46:47.011Z,0.34
2023-01-06T13:50:46.556Z,0.34
2023-01-06T13:54:46.626Z,0.34
2023-01-06T13:58:46.605Z,0.34
2023-01-06T14:02:48.214Z,0.34
2023-01-06T14:06:47.341Z,0.34
2023-01-06T14:10:47.003Z,0.34
2023-01-06T14:14:46.988Z,0.34
2023-01-06T14:18:46.999Z,0.34
2023-01-06T14:22:47.054Z,0.34
2023-01-06T14:26:47.093Z,0.34
2023-01-06T14:30:47.288Z,0.34
2023-01-06T14:34:47.205Z,0.34
2023-01-06T14:38:46.897Z,0.34
2023-01-06T14:42:46.761Z,1.7
2023-01-06T14:46:47.034Z,0.53
2023-01-06T14:50:59.161Z,0.53
2023-01-06T14:54:46.970Z,0.44
2023-01-06T14:58:47.272Z,0.44
2023-01-06T15:02:48.814Z,0.44
2023-01-06T15:06:47.061Z,0.44
2023-01-06T15:10:47.041Z,0.44
2023-01-06T15:14:47.227Z,0.44
2023-01-06T15:18:47.308Z,0.44
2023-01-06T15:22:47.077Z,0.44
2023-01-06T15:26:46.987Z,0.44
2023-01-06T15:30:46.699Z,0.44
2023-01-06T15:34:47.575Z,0.44
2023-01-06T15:38:46.970Z,0.44
2023-01-06T15:42:47.292Z,0.44
2023-01-06T15:46:47.542Z,0.44
2023-01-06T15:50:47.407Z,0.44
2023-01-06T15:54:47.092Z,0.44
2023-01-06T15:58:46.745Z,0.44
2023-01-06T16:02:47.147Z,0.44
2023-01-06T16:06:56.813Z,0.44
2023-01-06T16:10:47.200Z,0.44
2023-01-06T16:14:46.896Z,0.44
2023-01-06T16:18:49.665Z,0.44
2023-01-06T16:22:46.500Z,0.44
2023-01-06T16:26:49.608Z,0.44
2023-01-06T16:30:47.292Z,0.44
2023-01-06T16:34:46.949Z,0.44
2023-01-06T16:38:46.951Z,0.44
2023-01-06T16:42:46.689Z,0.44
2023-01-06T16:46:47.754Z,0.44
2023-01-06T16:50:47.112Z,0.44
2023-01-06T16:54:46.944Z,0.44
2023-01-06T16:58:47.256Z,0.44
2023-01-06T17:02:47.534Z,0.44
2023-01-06T17:06:46.724Z,0.44
2023-01-06T17:10:46.759Z,0.44
2023-01-06T17:14:46.480Z,0.44
2023-01-06T17:18:48.824Z,0.44
2023-01-06T17:22:47.325Z,0.44
2023-01-06T17:26:47.229Z,0.44
2023-01-06T17:30:47.118Z,0.44
2023-01-06T17:34:47.856Z,0.44
2023-01-06T17:38:47.153Z,0.44
2023-01-06T17:42:47.383Z,0.44
2023-01-06T17:46:47.266Z,0.44
2023-01-06T17:50:49.515Z,0.44
2023-01-06T17:54:46.790Z,0.44
2023-01-06T17:58:46.874Z,0.44
2023-01-06T18:02:47.103Z,0.44
2023-01-06T18:06:46.981Z,0.44
2023-01-06T18:10:47.235Z,0.44
2023-01-06T18:14:49.421Z,0.44
2023-01-06T18:18:46.880Z,0.44
2023-01-06T18:22:46.779Z,0.44
2023-01-06T18:26:46.746Z,0.44
2023-01-06T18:30:46.825Z,0.44
2023-01-06T18:34:47.016Z,0.44
2023-01-06T18:38:46.931Z,0.44
2023-01-06T18:42:48.409Z,0.44
2023-01-06T18:46:46.781Z,0.44
2023-01-06T18:50:46.556Z,0.44
2023-01-06T18:54:46.775Z,0.44
2023-01-06T18:58:47.033Z,0.44
2023-01-06T19:02:47.262Z,0.44
2023-01-06T19:06:49.925Z,0.44
2023-01-06T19:10:47.127Z,0.44
2023-01-06T19:14:47.260Z,0.44
2023-01-06T19:18:47.272Z,0.44
2023-01-06T19:22:46.559Z,0.44
2023-01-06T19:26:46.514Z,0.44
2023-01-06T19:30:46.791Z,0.44
2023-01-06T19:34:46.687Z,0.44
2023-01-06T19:38:46.811Z,0.44
2023-01-06T19:42:46.817Z,0.44
2023-01-06T19:46:46.941Z,0.44
2023-01-06T19:50:46.870Z,0.44
2023-01-06T19:54:46.896Z,0.44
2023-01-06T19:58:47.015Z,0.44
2023-01-06T20:02:47.368Z,0.44
2023-01-06T20:06:46.597Z,0.44
2023-01-06T20:10:46.719Z,0.44
2023-01-06T20:14:47.075Z,0.44
2023-01-06T20:18:46.904Z,0.44
2023-01-06T20:22:47.105Z,0.44
2023-01-06T20:26:47.262Z,0.44
2023-01-06T20:30:47.272Z,0.44
2023-01-06T20:34:47.096Z,0.44
2023-01-06T20:38:47.098Z,0.44
2023-01-06T20:42:47.347Z,0.44
2023-01-06T20:46:46.744Z,0.44
2023-01-06T20:50:46.806Z,0.44
2023-01-06T20:54:46.687Z,0.44
2023-01-06T20:58:47.006Z,0.44
2023-01-06T21:02:47.739Z,0.44
2023-01-06T21:06:46.927Z,0.44
2023-01-06T21:10:47.279Z,0.44
2023-01-06T21:14:46.450Z,0.44
2023-01-06T21:18:46.516Z,0.44
2023-01-06T21:22:46.721Z,0.44
2023-01-06T21:26:46.727Z,0.44
2023-01-06T21:30:47.055Z,0.44
2023-01-06T21:34:47.054Z,0.44
2023-01-06T21:38:47.112Z,0.44
2023-01-06T21:42:46.925Z,0.44
2023-01-06T21:46:47.487Z,0.44
2023-01-06T21:50:49.591Z,0.44
2023-01-06T21:54:46.498Z,0.44
2023-01-06T21:58:46.530Z,0.44
2023-01-06T22:02:47.689Z,0.44
2023-01-06T22:06:46.819Z,0.44
2023-01-06T22:10:49.451Z,0.44
2023-01-06T22:14:46.856Z,0.44
2023-01-06T22:18:46.848Z,0.44
2023-01-06T22:22:46.756Z,0.44
2023-01-06T22:26:46.710Z,0.44
2023-01-06T22:30:47.377Z,0.44
2023-01-06T22:34:46.998Z,0.44
2023-01-06T22:38:47.152Z,0.44
2023-01-06T22:42:47.159Z,0.44
2023-01-06T22:46:47.451Z,0.44
2023-01-06T22:50:47.486Z,0.44
2023-01-06T22:54:47.312Z,0.44
2023-01-06T22:58:47.173Z,0.44
2023-01-06T23:02:48.729Z,0.44
2023-01-06T23:06:47.084Z,0.44
2023-01-06T23:10:47.158Z,0.44
2023-01-06T23:14:47.050Z,0.44
2023-01-06T23:18:47.232Z,0.44
2023-01-06T23:22:47.213Z,0.44
2023-01-06T23:26:47.162Z,0.44
2023-01-06T23:30:47.189Z,0.44
2023-01-06T23:34:47.377Z,0.44
2023-01-06T23:38:48.692Z,0.44
2023-01-06T23:42:59.020Z,0.44
2023-01-06T23:46:47.752Z,0.44
2023-01-06T23:50:46.703Z,0.44
2023-01-06T23:54:47.057Z,0.44
2023-01-06T23:58:46.713Z,0.44
